createdAt,value
2022-11-23T00:03:50.847Z,999.4
2022-11-23T00:09:32.169Z,999.4
2022-11-23T00:15:13.549Z,0
2022-11-23T00:20:54.401Z,999.6
2022-11-23T00:26:34.755Z,999.6
2022-11-23T00:32:14.955Z,999.6
2022-11-23T00:37:55.179Z,1285.8
2022-11-23T00:43:35.452Z,999.7
2022-11-23T00:49:15.281Z,0
2022-11-23T00:54:55.694Z,0
2022-11-23T01:00:35.427Z,0
2022-11-23T01:06:15.978Z,0
2022-11-23T01:11:56.063Z,0
2022-11-23T01:17:36.006Z,0
2022-11-23T01:23:15.690Z,0
2022-11-23T01:28:55.932Z,0
2022-11-23T01:34:35.888Z,0
2022-11-23T01:40:15.727Z,0
2022-11-23T01:45:55.973Z,0
2022-11-23T01:51:35.955Z,0
2022-11-23T01:57:15.815Z,0
2022-11-23T02:02:56.070Z,0
2022-11-23T02:08:35.975Z,0
2022-11-23T02:14:23.871Z,0
2022-11-23T02:20:03.959Z,1285.8
2022-11-23T02:25:43.767Z,0
2022-11-23T02:31:23.495Z,0
2022-11-23T02:37:03.828Z,0
2022-11-23T02:42:43.708Z,0
2022-11-23T02:48:23.749Z,0
2022-11-23T02:54:04.233Z,0
2022-11-23T02:59:43.901Z,0
2022-11-23T03:05:23.697Z,0
2022-11-23T03:11:03.495Z,0
2022-11-23T03:16:43.434Z,0
2022-11-23T03:22:23.168Z,0
2022-11-23T03:28:03.339Z,0
2022-11-23T03:33:43.126Z,0
2022-11-23T03:39:22.827Z,0
2022-11-23T03:45:02.746Z,0
2022-11-23T03:50:42.494Z,0
2022-11-23T03:56:22.514Z,0
2022-11-23T04:02:02.314Z,0
2022-11-23T04:07:42.849Z,0
2022-11-23T04:13:23.324Z,0
2022-11-23T04:19:03.363Z,0
2022-11-23T04:24:43.389Z,0
2022-11-23T04:30:23.837Z,0
2022-11-23T04:36:04.061Z,0
2022-11-23T04:41:43.827Z,0
2022-11-23T04:47:24.017Z,0
2022-11-23T04:53:03.845Z,0
2022-11-23T04:58:43.676Z,0
2022-11-23T05:04:23.946Z,0
2022-11-23T05:10:04.251Z,0
2022-11-23T05:16:08.509Z,0
2022-11-23T05:21:48.884Z,0
2022-11-23T05:27:29.499Z,0
2022-11-23T05:33:09.580Z,0
2022-11-23T05:38:49.377Z,0
2022-11-23T05:44:29.457Z,0
2022-11-23T05:50:09.144Z,0
2022-11-23T05:55:49.404Z,0
2022-11-23T06:01:29.542Z,0
2022-11-23T06:07:09.928Z,0
2022-11-23T06:12:50.803Z,0
2022-11-23T06:18:31.015Z,0
2022-11-23T06:24:11.004Z,0
2022-11-23T06:29:51.538Z,0
2022-11-23T06:35:31.501Z,0
2022-11-23T06:41:11.446Z,0
2022-11-23T06:46:51.170Z,0
2022-11-23T06:52:31.075Z,0
2022-11-23T06:58:11.173Z,0
2022-11-23T07:03:52.035Z,0
2022-11-23T07:09:33.350Z,0
2022-11-23T07:15:14.965Z,0
2022-11-23T07:20:54.950Z,0
2022-11-23T07:26:34.784Z,0
2022-11-23T07:32:14.664Z,0
2022-11-23T07:37:54.677Z,0
2022-11-23T07:43:34.788Z,0
2022-11-23T07:49:15.071Z,0
2022-11-23T07:54:55.218Z,0
2022-11-23T08:00:35.253Z,0
2022-11-23T08:06:15.117Z,0
2022-11-23T08:11:55.637Z,0
2022-11-23T08:17:36.685Z,1001.6
2022-11-23T08:23:17.455Z,1001
2022-11-23T08:28:57.431Z,0
2022-11-23T08:34:37.564Z,0
2022-11-23T08:40:26.169Z,999.9
2022-11-23T08:46:11.765Z,999.3
2022-11-23T08:51:52.441Z,999.1
2022-11-23T09:03:08.859Z,999
2022-11-23T09:08:49.312Z,999
2022-11-23T09:14:31.026Z,998.9
2022-11-23T09:20:12.439Z,999.2
2022-11-23T09:25:52.936Z,999.1
2022-11-23T09:31:33.167Z,998.8
2022-11-23T09:37:13.856Z,998.7
2022-11-23T09:42:54.435Z,998.6
2022-11-23T09:48:34.769Z,998.5
2022-11-23T09:54:14.882Z,998.4
2022-11-23T09:59:55.391Z,998.2
2022-11-23T10:05:35.720Z,998.2
2022-11-23T10:11:16.678Z,998
2022-11-23T10:16:57.004Z,998
2022-11-23T10:22:37.202Z,997.9
2022-11-23T10:28:17.891Z,997.9
2022-11-23T10:33:58.789Z,997.7
2022-11-23T10:39:39.164Z,997.7
2022-11-23T10:45:19.250Z,997.6
2022-11-23T10:50:59.447Z,997.7
2022-11-23T10:56:39.468Z,997.7
2022-11-23T11:02:19.287Z,997.9
2022-11-23T11:07:59.512Z,997.8
2022-11-23T11:13:39.324Z,997.7
2022-11-23T11:19:19.280Z,997.8
2022-11-23T11:24:59.113Z,997.6
2022-11-23T11:30:41.960Z,997.6
2022-11-23T11:36:25.390Z,997.8
2022-11-23T11:42:06.223Z,997.7
2022-11-23T11:47:46.756Z,997.6
2022-11-23T11:53:30.635Z,997.5
2022-11-23T11:59:11.567Z,997.2
2022-11-23T12:04:52.024Z,997.1
2022-11-23T12:10:32.475Z,996.9
2022-11-23T12:16:12.813Z,996.9
2022-11-23T12:21:59.592Z,996.7
2022-11-23T12:27:51.997Z,996.6
2022-11-23T12:33:32.555Z,996.7
2022-11-23T12:39:13.104Z,996.6
2022-11-23T12:44:53.412Z,996.6
2022-11-23T12:50:35.816Z,996.6
2022-11-23T12:56:21.628Z,996.6
2022-11-23T13:02:02.551Z,996.7
2022-11-23T13:07:50.041Z,996.7
2022-11-23T13:13:30.748Z,996.8
2022-11-23T13:19:11.168Z,996.9
2022-11-23T13:24:51.649Z,996.8
2022-11-23T13:31:19.496Z,996.9
2022-11-23T13:37:17.023Z,996.8
2022-11-23T13:42:57.606Z,996.8
2022-11-23T13:49:07.835Z,996.9
2022-11-23T13:54:48.536Z,996.7
2022-11-23T14:00:28.885Z,996.7
2022-11-23T14:06:12.531Z,996.7
2022-11-23T14:11:52.827Z,996.7
2022-11-23T14:17:33.387Z,996.9
2022-11-23T14:23:13.801Z,997
2022-11-23T14:28:54.217Z,997.2
2022-11-23T14:34:35.720Z,998.1
2022-11-23T14:40:16.554Z,1000.7
2022-11-23T14:45:57.448Z,1001.7
2022-11-23T14:51:38.298Z,1002.6
2022-11-23T14:57:18.478Z,1003.4
2022-11-23T15:02:59.123Z,1004.3
2022-11-23T15:08:39.888Z,0
2022-11-23T15:14:20.911Z,1280.9
2022-11-23T15:20:01.845Z,1000.3
2022-11-23T15:25:42.769Z,1000
2022-11-23T15:31:23.321Z,999.7
2022-11-23T15:37:04.317Z,999.6
2022-11-23T15:42:44.672Z,999.4
2022-11-23T15:48:24.820Z,999.3
2022-11-23T15:54:05.030Z,999.2
2022-11-23T15:59:45.581Z,999.3
2022-11-23T16:05:25.934Z,999.4
2022-11-23T16:11:12.167Z,999.4
2022-11-23T16:16:56.484Z,999.5
2022-11-23T16:22:37.109Z,999.4
2022-11-23T16:28:20.240Z,1285.8
2022-11-23T16:34:00.795Z,999
2022-11-23T16:39:41.289Z,999
2022-11-23T16:45:21.775Z,1665.2
2022-11-23T16:51:02.104Z,999.1
2022-11-23T16:56:42.533Z,999.1
2022-11-23T17:02:23.368Z,1285.8
2022-11-23T17:08:04.396Z,999.1
2022-11-23T17:13:44.340Z,999.2
2022-11-23T17:19:24.644Z,999.1
2022-11-23T17:25:15.345Z,999
2022-11-23T17:30:56.292Z,999.2
2022-11-23T17:36:37.525Z,999.2
2022-11-23T17:42:18.416Z,999.2
2022-11-23T17:48:04.059Z,999.3
2022-11-23T17:53:44.730Z,999.2
2022-11-23T17:59:25.271Z,999.3
2022-11-23T18:05:05.137Z,0
2022-11-23T18:10:45.537Z,999.4
2022-11-23T18:16:25.985Z,0
2022-11-23T18:22:06.814Z,999.5
2022-11-23T18:27:47.165Z,999.6
2022-11-23T18:33:28.050Z,999.6
2022-11-23T18:39:08.449Z,999.7
2022-11-23T18:44:48.836Z,999.8
2022-11-23T18:50:29.553Z,999.9
2022-11-23T18:56:09.748Z,999.9
2022-11-23T19:01:50.224Z,1285.8
2022-11-23T19:07:31.384Z,1000.1
2022-11-23T19:13:12.173Z,1000.2
2022-11-23T19:18:52.360Z,1000.2
2022-11-23T19:24:32.690Z,1000.3
2022-11-23T19:30:13.071Z,1000.4
2022-11-23T19:35:53.393Z,1000.4
2022-11-23T19:41:38.669Z,1285.8
2022-11-23T19:47:24.976Z,1000.6
2022-11-23T19:53:13.706Z,1000.7
2022-11-23T19:58:54.353Z,1000.8
2022-11-23T20:04:35.393Z,1000.8
2022-11-23T20:10:19.767Z,1001
2022-11-23T20:16:03.720Z,1001
2022-11-23T20:21:45.234Z,1001.2
2022-11-23T20:27:25.397Z,1001.2
2022-11-23T20:33:05.792Z,1001.4
2022-11-23T20:38:53.688Z,1001.4
2022-11-23T20:44:51.597Z,1001.4
2022-11-23T20:50:40.614Z,1001.4
2022-11-23T20:56:32.967Z,1001.6
2022-11-23T21:02:19.024Z,1001.8
2022-11-23T21:08:03.639Z,1001.8
2022-11-23T21:13:50.294Z,1001.9
2022-11-23T21:19:30.693Z,1001.9
2022-11-23T21:25:11.136Z,1002
2022-11-23T21:30:51.412Z,1002
2022-11-23T21:36:31.693Z,1002.1
2022-11-23T21:42:11.955Z,1002.1
2022-11-23T21:47:52.189Z,1002.2
2022-11-23T21:53:32.738Z,1002.4
2022-11-23T21:59:13.183Z,1002.4
2022-11-23T22:04:53.488Z,1002.5
2022-11-23T22:10:33.839Z,1002.6
2022-11-23T22:16:14.606Z,1002.7
2022-11-23T22:21:55.391Z,1002.8
2022-11-23T22:27:35.694Z,1002.8
2022-11-23T22:33:15.844Z,1003
2022-11-23T22:39:02.709Z,1003
2022-11-23T22:44:43.228Z,1003.1
2022-11-23T22:50:23.822Z,1003.3
2022-11-23T22:56:08.981Z,1003.6
2022-11-23T23:01:49.403Z,1003.8
2022-11-23T23:07:30.162Z,1004.1
2022-11-23T23:13:11.307Z,1004.3
2022-11-23T23:18:51.854Z,1004.5
2022-11-23T23:24:33.564Z,1004.6
2022-11-23T23:30:15.386Z,1004.5
2022-11-23T23:35:55.473Z,1004.8
2022-11-23T23:41:36.381Z,1005.1
2022-11-23T23:47:16.735Z,1005.1
2022-11-23T23:52:56.684Z,1005.1
2022-11-23T23:58:37.122Z,1005.1
